createdAt,value
2023-05-16T00:00:07.069Z,35.62
2023-05-16T00:01:07.008Z,35.60
2023-05-16T00:02:07.103Z,35.60
2023-05-16T00:03:07.144Z,35.58
2023-05-16T00:04:07.092Z,35.66
2023-05-16T00:05:07.067Z,35.66
2023-05-16T00:06:07.069Z,35.64
2023-05-16T00:07:07.022Z,35.64
2023-05-16T00:08:07.033Z,35.69
2023-05-16T00:09:07.029Z,35.67
2023-05-16T00:10:07.092Z,35.67
2023-05-16T00:11:07.097Z,35.62
2023-05-16T00:12:07.057Z,35.60
2023-05-16T00:13:07.076Z,35.62
2023-05-16T00:14:07.074Z,35.65
2023-05-16T00:15:07.088Z,35.66
2023-05-16T00:16:07.240Z,35.65
2023-05-16T00:17:07.268Z,35.68
2023-05-16T00:18:07.112Z,35.67
2023-05-16T00:19:07.101Z,35.65
2023-05-16T00:20:07.082Z,35.74
2023-05-16T00:21:07.130Z,35.65
2023-05-16T00:22:07.113Z,35.69
2023-05-16T00:23:07.084Z,35.65
2023-05-16T00:24:07.066Z,35.64
2023-05-16T00:25:07.144Z,35.63
2023-05-16T00:26:07.121Z,35.67
2023-05-16T00:27:07.170Z,35.66
2023-05-16T00:28:07.153Z,35.66
2023-05-16T00:29:07.180Z,35.72
2023-05-16T00:30:07.180Z,35.71
2023-05-16T00:31:07.178Z,35.66
2023-05-16T00:32:07.238Z,35.65
2023-05-16T00:33:07.262Z,35.66
2023-05-16T00:34:07.219Z,35.65
2023-05-16T00:35:07.218Z,35.67
2023-05-16T00:36:07.221Z,35.68
2023-05-16T00:37:07.226Z,35.67
2023-05-16T00:38:07.230Z,35.68
2023-05-16T00:39:07.304Z,35.67
2023-05-16T00:40:07.186Z,35.66
2023-05-16T00:41:07.222Z,35.67
2023-05-16T00:42:07.206Z,35.66
2023-05-16T00:43:07.197Z,35.72
2023-05-16T00:44:07.207Z,35.71
2023-05-16T00:45:07.236Z,35.70
2023-05-16T00:46:07.261Z,35.70
2023-05-16T00:47:07.185Z,35.68
2023-05-16T00:48:07.326Z,35.68
2023-05-16T00:49:07.220Z,35.69
2023-05-16T00:50:07.265Z,35.68
2023-05-16T00:51:07.228Z,35.69
2023-05-16T00:52:07.236Z,35.71
2023-05-16T00:53:07.283Z,35.70
2023-05-16T00:54:07.287Z,35.70
2023-05-16T00:55:07.264Z,35.69
2023-05-16T00:56:07.256Z,35.75
2023-05-16T00:57:07.263Z,35.78
2023-05-16T00:58:07.294Z,35.70
2023-05-16T00:59:07.269Z,35.71
2023-05-16T01:00:07.280Z,35.75
2023-05-16T01:01:07.360Z,35.75
2023-05-16T01:02:07.246Z,35.75
2023-05-16T01:03:07.423Z,35.74
2023-05-16T01:04:07.323Z,35.80
2023-05-16T01:05:07.261Z,35.76
2023-05-16T01:06:07.281Z,35.80
2023-05-16T01:07:07.279Z,35.74
2023-05-16T01:08:07.275Z,35.72
2023-05-16T01:09:07.274Z,35.75
2023-05-16T01:10:07.278Z,35.71
2023-05-16T01:11:07.243Z,35.70
2023-05-16T01:12:07.308Z,35.71
2023-05-16T01:13:07.288Z,35.73
2023-05-16T01:14:07.220Z,35.71
2023-05-16T01:15:07.260Z,35.71
2023-05-16T01:16:07.318Z,35.74
2023-05-16T01:17:07.246Z,35.73
2023-05-16T01:18:07.326Z,35.73
2023-05-16T01:19:07.293Z,35.75
2023-05-16T01:20:07.332Z,35.71
2023-05-16T01:21:07.222Z,35.73
2023-05-16T01:22:07.234Z,35.77
2023-05-16T01:23:07.232Z,35.75
2023-05-16T01:24:07.216Z,35.75
2023-05-16T01:25:07.248Z,35.77
2023-05-16T01:26:07.213Z,35.79
2023-05-16T01:27:07.265Z,35.71
2023-05-16T01:28:07.265Z,35.75
2023-05-16T01:29:07.235Z,35.76
2023-05-16T01:30:07.278Z,35.74
2023-05-16T01:31:07.329Z,35.76
2023-05-16T01:32:07.379Z,35.75
2023-05-16T01:33:07.359Z,35.77
2023-05-16T01:34:07.305Z,35.76
2023-05-16T01:35:07.351Z,35.82
2023-05-16T01:36:07.324Z,35.77
2023-05-16T01:37:07.352Z,35.78
2023-05-16T01:38:07.381Z,35.77
2023-05-16T01:39:07.386Z,35.76
2023-05-16T01:40:07.380Z,35.77
2023-05-16T01:41:07.379Z,35.78
2023-05-16T01:42:07.403Z,35.77
2023-05-16T01:43:07.421Z,35.78
2023-05-16T01:44:07.426Z,35.77
2023-05-16T01:45:07.430Z,35.79
2023-05-16T01:46:07.454Z,35.79
2023-05-16T01:47:07.631Z,35.78
2023-05-16T01:48:07.529Z,35.79
2023-05-16T01:49:07.517Z,35.79
2023-05-16T01:50:07.515Z,35.80
2023-05-16T01:51:07.530Z,35.79
2023-05-16T01:52:07.539Z,35.78
2023-05-16T01:53:07.569Z,35.79
2023-05-16T01:54:07.570Z,35.81
2023-05-16T01:55:07.544Z,35.78
2023-05-16T01:56:07.588Z,35.78
2023-05-16T01:57:07.613Z,35.80
2023-05-16T01:58:07.578Z,35.79
2023-05-16T01:59:07.559Z,35.80
2023-05-16T02:00:07.534Z,35.80
2023-05-16T02:01:07.617Z,35.84
2023-05-16T02:02:07.582Z,35.84
2023-05-16T02:03:07.614Z,35.84
2023-05-16T02:04:07.686Z,35.81
2023-05-16T02:05:07.584Z,35.83
2023-05-16T02:06:07.584Z,35.83
2023-05-16T02:07:07.565Z,35.84
2023-05-16T02:08:07.562Z,35.84
2023-05-16T02:09:07.565Z,35.83
2023-05-16T02:10:07.566Z,35.83
2023-05-16T02:11:07.580Z,35.84
2023-05-16T02:12:07.621Z,35.83
2023-05-16T02:13:07.603Z,35.81
2023-05-16T02:14:07.579Z,35.84
2023-05-16T02:15:07.624Z,35.84
2023-05-16T02:16:07.693Z,35.85
2023-05-16T02:17:07.655Z,35.86
2023-05-16T02:18:07.671Z,35.87
2023-05-16T02:19:07.681Z,35.86
2023-05-16T02:20:07.599Z,35.84
2023-05-16T02:21:07.609Z,35.85
2023-05-16T02:22:07.608Z,35.86
2023-05-16T02:23:07.624Z,35.86
2023-05-16T02:24:07.618Z,35.85
2023-05-16T02:25:07.624Z,35.85
2023-05-16T02:26:07.607Z,35.87
2023-05-16T02:27:07.620Z,35.86
2023-05-16T02:28:07.622Z,35.83
2023-05-16T02:29:07.620Z,35.87
2023-05-16T02:30:07.639Z,35.85
2023-05-16T02:31:07.632Z,35.88
2023-05-16T02:32:07.612Z,35.88
2023-05-16T02:33:07.662Z,35.89
2023-05-16T02:34:07.640Z,35.86
2023-05-16T02:35:07.659Z,35.88
2023-05-16T02:36:07.625Z,35.86
2023-05-16T02:37:07.618Z,35.86
2023-05-16T02:38:07.626Z,35.86
2023-05-16T02:39:07.689Z,35.88
2023-05-16T02:40:07.618Z,35.87
2023-05-16T02:41:07.629Z,35.86
2023-05-16T02:42:07.701Z,35.89
2023-05-16T02:43:07.635Z,35.89
2023-05-16T02:44:07.652Z,35.89
2023-05-16T02:45:07.703Z,35.89
2023-05-16T02:46:07.708Z,35.89
2023-05-16T02:47:07.723Z,35.90
2023-05-16T02:48:07.794Z,35.88
2023-05-16T02:49:07.763Z,35.89
2023-05-16T02:50:07.767Z,35.87
2023-05-16T02:51:07.897Z,35.92
2023-05-16T02:52:07.906Z,35.90
2023-05-16T02:53:07.882Z,35.90
2023-05-16T02:54:07.928Z,35.89
2023-05-16T02:56:07.883Z,35.92
2023-05-16T02:57:07.895Z,35.89
2023-05-16T02:58:07.896Z,35.90
2023-05-16T02:59:07.914Z,35.91
2023-05-16T03:00:07.912Z,35.91
2023-05-16T03:01:08.001Z,35.91
2023-05-16T03:02:08.021Z,35.89
2023-05-16T03:03:07.967Z,35.91
2023-05-16T03:04:07.859Z,35.92
2023-05-16T03:05:07.858Z,35.93
2023-05-16T03:06:07.843Z,35.91
2023-05-16T03:07:07.860Z,35.93
2023-05-16T03:08:07.822Z,35.93
2023-05-16T03:09:07.834Z,35.94
2023-05-16T03:10:07.830Z,35.93
2023-05-16T03:11:07.845Z,35.91
2023-05-16T03:12:07.797Z,35.93
2023-05-16T03:13:07.803Z,35.94
2023-05-16T03:14:07.766Z,35.95
2023-05-16T03:15:07.805Z,35.95
2023-05-16T03:16:07.847Z,35.95
2023-05-16T03:17:07.781Z,35.96
2023-05-16T03:18:07.844Z,35.95
2023-05-16T03:19:07.832Z,35.92
2023-05-16T03:20:07.751Z,35.93
2023-05-16T03:21:07.754Z,35.93
2023-05-16T03:22:07.714Z,35.93
2023-05-16T03:23:07.719Z,35.95
2023-05-16T03:24:07.723Z,35.94
2023-05-16T03:25:07.723Z,35.98
2023-05-16T03:26:07.738Z,35.97
2023-05-16T03:27:07.698Z,35.97
2023-05-16T03:28:07.713Z,35.96
2023-05-16T03:29:07.771Z,35.95
2023-05-16T03:30:07.725Z,35.95
2023-05-16T03:31:07.703Z,35.96
2023-05-16T03:32:07.802Z,35.95
2023-05-16T03:33:07.744Z,35.97
2023-05-16T03:34:07.652Z,35.96
2023-05-16T03:35:07.643Z,35.96
2023-05-16T03:36:07.618Z,35.96
2023-05-16T03:37:07.654Z,35.98
2023-05-16T03:38:07.626Z,35.97
2023-05-16T03:39:07.632Z,35.96
2023-05-16T03:40:07.623Z,35.98
2023-05-16T03:41:07.581Z,35.97
2023-05-16T03:42:07.585Z,35.99
2023-05-16T03:43:07.568Z,35.97
2023-05-16T03:44:07.564Z,35.98
2023-05-16T03:45:07.608Z,35.97
2023-05-16T03:46:07.641Z,35.96
2023-05-16T03:47:07.559Z,35.94
2023-05-16T03:48:07.617Z,35.97
2023-05-16T03:49:07.522Z,35.94
2023-05-16T03:50:07.598Z,35.96
2023-05-16T03:51:07.541Z,35.99
2023-05-16T03:52:07.553Z,35.99
2023-05-16T03:53:07.514Z,35.98
2023-05-16T03:54:07.520Z,35.99
2023-05-16T03:55:07.496Z,35.98
2023-05-16T03:56:07.488Z,36.00
2023-05-16T03:57:07.515Z,35.98
2023-05-16T03:58:07.470Z,35.98
2023-05-16T03:59:07.495Z,35.98
2023-05-16T04:00:07.477Z,35.98
2023-05-16T04:01:07.473Z,35.99
2023-05-16T04:02:07.476Z,35.97
2023-05-16T04:03:07.557Z,36.04
2023-05-16T04:04:07.430Z,36.03
2023-05-16T04:05:07.442Z,35.98
2023-05-16T04:06:07.460Z,35.95
2023-05-16T04:07:07.398Z,35.92
2023-05-16T04:08:07.458Z,35.87
2023-05-16T04:09:07.410Z,35.88
2023-05-16T04:10:07.419Z,35.92
2023-05-16T04:11:07.426Z,35.92
2023-05-16T04:12:07.384Z,35.81
2023-05-16T04:13:07.379Z,35.75
2023-05-16T04:14:07.458Z,35.74
2023-05-16T04:15:07.366Z,35.76
2023-05-16T04:16:07.366Z,35.73
2023-05-16T04:17:07.383Z,35.72
2023-05-16T04:18:07.375Z,35.71
2023-05-16T04:19:07.433Z,35.66
2023-05-16T04:20:07.343Z,35.68
2023-05-16T04:21:07.345Z,35.64
2023-05-16T04:22:07.331Z,35.64
2023-05-16T04:23:07.342Z,35.60
2023-05-16T04:24:07.360Z,35.56
2023-05-16T04:25:07.414Z,35.60
2023-05-16T04:26:07.526Z,35.65
2023-05-16T04:27:07.576Z,35.59
2023-05-16T04:28:07.637Z,35.52
2023-05-16T04:29:07.715Z,35.51
2023-05-16T04:30:07.707Z,35.44
2023-05-16T04:31:07.797Z,35.45
2023-05-16T04:32:07.890Z,35.46
2023-05-16T04:33:07.959Z,35.44
2023-05-16T04:34:07.944Z,35.45
2023-05-16T04:35:08.049Z,35.48
2023-05-16T04:36:08.058Z,35.46
2023-05-16T04:37:08.127Z,35.48
2023-05-16T04:38:08.227Z,35.46
2023-05-16T04:39:08.266Z,35.47
2023-05-16T04:40:08.309Z,35.45
2023-05-16T04:41:08.352Z,35.41
2023-05-16T04:42:08.421Z,35.44
2023-05-16T04:43:08.445Z,35.43
2023-05-16T04:44:08.518Z,35.42
2023-05-16T04:45:08.554Z,35.42
2023-05-16T04:46:08.679Z,35.41
2023-05-16T04:47:08.659Z,35.40
2023-05-16T04:48:08.783Z,35.39
2023-05-16T04:49:08.774Z,35.39
2023-05-16T04:50:08.826Z,35.39
2023-05-16T04:51:08.902Z,35.37
2023-05-16T04:52:08.908Z,35.38
2023-05-16T04:53:08.984Z,35.35
2023-05-16T04:54:08.984Z,35.37
2023-05-16T04:55:09.056Z,35.38
2023-05-16T04:56:09.113Z,35.37
2023-05-16T04:57:09.141Z,35.34
2023-05-16T04:58:09.189Z,35.35
2023-05-16T04:59:09.234Z,35.36
2023-05-16T05:00:09.301Z,35.36
2023-05-16T05:01:09.449Z,35.34
2023-05-16T05:02:09.442Z,35.36
2023-05-16T05:03:09.445Z,35.36
2023-05-16T05:04:09.477Z,35.34
2023-05-16T05:05:09.611Z,35.37
2023-05-16T05:06:09.551Z,35.37
2023-05-16T05:07:09.589Z,35.34
2023-05-16T05:08:09.663Z,35.37
2023-05-16T05:09:09.715Z,35.38
2023-05-16T05:10:09.709Z,35.35
2023-05-16T05:11:09.763Z,35.36
2023-05-16T05:12:09.835Z,35.36
2023-05-16T05:13:09.832Z,35.35
2023-05-16T05:14:09.896Z,35.35
2023-05-16T05:15:09.972Z,35.37
2023-05-16T05:16:10.024Z,35.36
2023-05-16T05:17:10.068Z,35.39
2023-05-16T05:18:10.223Z,35.36
2023-05-16T05:19:10.154Z,35.34
2023-05-16T05:20:10.200Z,35.38
2023-05-16T05:21:10.217Z,35.40
2023-05-16T05:22:10.286Z,35.37
2023-05-16T05:23:10.278Z,35.42
2023-05-16T05:24:10.391Z,35.37
2023-05-16T05:25:10.385Z,35.38
2023-05-16T05:26:10.438Z,35.39
2023-05-16T05:27:10.496Z,35.41
2023-05-16T05:28:10.500Z,35.38
2023-05-16T05:29:10.562Z,35.39
2023-05-16T05:30:10.613Z,35.37
2023-05-16T05:31:10.679Z,35.39
2023-05-16T05:32:10.858Z,35.41
2023-05-16T05:33:10.842Z,35.86
2023-05-16T05:34:10.792Z,35.86
2023-05-16T05:35:11.102Z,35.96
2023-05-16T05:36:10.920Z,36.26
2023-05-16T05:37:11.029Z,36.59
2023-05-16T05:38:10.921Z,36.82
2023-05-16T05:39:10.925Z,37.02
2023-05-16T05:40:11.112Z,37.43
2023-05-16T05:41:10.972Z,37.59
2023-05-16T05:42:11.000Z,37.73
2023-05-16T05:43:11.051Z,37.67
2023-05-16T05:44:11.034Z,37.57
2023-05-16T05:45:11.733Z,37.58
2023-05-16T05:46:11.216Z,38.02
2023-05-16T05:47:11.266Z,38.66
2023-05-16T05:48:11.281Z,38.37
2023-05-16T05:49:11.173Z,38.47
2023-05-16T05:50:11.199Z,38.58
2023-05-16T05:51:11.267Z,38.41
2023-05-16T05:52:11.261Z,38.23
2023-05-16T05:53:11.576Z,38.09
2023-05-16T05:54:11.281Z,38.04
2023-05-16T05:55:11.268Z,37.99
2023-05-16T05:56:11.276Z,38.07
2023-05-16T05:57:11.294Z,37.95
2023-05-16T05:58:11.302Z,38.36
2023-05-16T05:59:11.310Z,38.05
2023-05-16T06:00:11.335Z,37.86
2023-05-16T06:01:11.342Z,37.88
2023-05-16T06:02:11.378Z,37.97
2023-05-16T06:03:11.450Z,37.93
2023-05-16T06:04:11.415Z,37.92
2023-05-16T06:05:11.494Z,38.12
2023-05-16T06:06:11.488Z,37.94
2023-05-16T06:07:11.530Z,37.83
2023-05-16T06:08:11.641Z,37.78
2023-05-16T06:09:11.698Z,37.87
2023-05-16T06:10:11.770Z,37.85
2023-05-16T06:11:11.828Z,37.80
2023-05-16T06:12:11.844Z,37.78
2023-05-16T06:13:11.946Z,37.71
2023-05-16T06:14:11.977Z,37.74
2023-05-16T06:15:12.004Z,37.73
2023-05-16T06:16:12.085Z,37.67
2023-05-16T06:17:12.227Z,37.75
2023-05-16T06:18:12.212Z,37.73
2023-05-16T06:19:12.653Z,37.77
2023-05-16T06:20:12.308Z,37.87
2023-05-16T06:21:12.342Z,37.76
2023-05-16T06:22:12.377Z,37.81
2023-05-16T06:23:12.435Z,37.80
2023-05-16T06:24:12.467Z,37.82
2023-05-16T06:25:12.517Z,37.69
2023-05-16T06:26:12.525Z,37.65
2023-05-16T06:27:12.586Z,37.71
2023-05-16T06:28:12.588Z,37.64
2023-05-16T06:29:12.652Z,37.62
2023-05-16T06:30:12.656Z,37.78
2023-05-16T06:31:12.781Z,37.54
2023-05-16T06:32:13.534Z,37.46
2023-05-16T06:33:12.788Z,37.77
2023-05-16T06:34:12.850Z,37.62
2023-05-16T06:35:12.850Z,37.49
2023-05-16T06:36:12.916Z,37.62
2023-05-16T06:37:12.926Z,37.27
2023-05-16T06:38:13.089Z,36.78
2023-05-16T06:39:13.076Z,36.94
2023-05-16T06:40:13.030Z,37.30
2023-05-16T06:41:13.048Z,37.25
2023-05-16T06:42:13.142Z,37.52
2023-05-16T06:43:13.068Z,37.84
2023-05-16T06:44:13.112Z,38.53
2023-05-16T06:45:13.087Z,38.61
2023-05-16T06:46:13.153Z,38.68
2023-05-16T06:47:13.127Z,38.90
2023-05-16T06:48:13.280Z,38.79
2023-05-16T06:49:13.266Z,38.66
2023-05-16T06:50:13.290Z,38.60
2023-05-16T06:51:13.381Z,38.57
2023-05-16T06:52:13.376Z,38.51
2023-05-16T06:53:13.421Z,38.40
2023-05-16T06:54:13.436Z,38.50
2023-05-16T06:55:13.438Z,38.44
2023-05-16T06:56:13.470Z,38.38
2023-05-16T06:57:13.455Z,38.20
2023-05-16T06:58:13.449Z,38.22
2023-05-16T06:59:13.445Z,38.09
2023-05-16T07:00:13.535Z,37.99
2023-05-16T07:01:13.637Z,37.94
2023-05-16T07:02:14.106Z,37.80
2023-05-16T07:03:13.785Z,37.86
2023-05-16T07:04:13.856Z,37.87
2023-05-16T07:05:13.769Z,37.95
2023-05-16T07:06:13.840Z,37.94
2023-05-16T07:07:13.845Z,37.97
2023-05-16T07:08:13.900Z,37.90
2023-05-16T07:09:13.945Z,37.83
2023-05-16T07:10:14.007Z,37.76
2023-05-16T07:11:14.016Z,37.77
2023-05-16T07:12:14.053Z,37.79
2023-05-16T07:13:14.091Z,37.73
2023-05-16T07:14:14.135Z,37.73
2023-05-16T07:15:14.243Z,37.73
2023-05-16T07:16:14.207Z,37.78
2023-05-16T07:17:14.200Z,37.87
2023-05-16T07:18:14.283Z,37.81
2023-05-16T07:19:14.366Z,37.79
2023-05-16T07:20:14.271Z,37.76
2023-05-16T07:21:14.800Z,37.67
2023-05-16T07:22:14.286Z,37.69
2023-05-16T07:23:14.289Z,37.69
2023-05-16T07:24:14.301Z,37.70
2023-05-16T07:25:14.368Z,37.64
2023-05-16T07:26:14.311Z,37.68
2023-05-16T07:27:14.359Z,37.67
2023-05-16T07:28:14.347Z,37.72
2023-05-16T07:29:14.470Z,37.97
2023-05-16T07:30:14.359Z,37.83
2023-05-16T07:31:14.372Z,37.90
2023-05-16T07:32:14.357Z,37.90
2023-05-16T07:33:14.406Z,37.89
2023-05-16T07:34:14.395Z,36.89
2023-05-16T07:35:14.374Z,36.61
2023-05-16T07:36:16.862Z,36.69
2023-05-16T07:37:14.426Z,36.81
2023-05-16T07:38:14.388Z,37.13
2023-05-16T07:39:14.407Z,37.30
2023-05-16T07:40:14.367Z,37.45
2023-05-16T07:41:14.417Z,37.55
2023-05-16T07:42:14.361Z,37.53
2023-05-16T07:43:14.388Z,37.59
2023-05-16T07:44:14.386Z,37.63
2023-05-16T07:45:14.351Z,37.60
2023-05-16T07:46:14.397Z,37.55
2023-05-16T07:47:14.330Z,37.52
2023-05-16T07:48:15.192Z,37.49
2023-05-16T07:49:14.609Z,37.42
2023-05-16T07:50:14.338Z,37.42
2023-05-16T07:51:14.327Z,37.47
2023-05-16T07:52:14.344Z,37.42
2023-05-16T07:53:14.341Z,37.44
2023-05-16T07:54:14.294Z,37.39
2023-05-16T07:55:14.302Z,37.37
2023-05-16T07:56:14.285Z,37.37
2023-05-16T07:57:14.249Z,37.38
2023-05-16T07:58:14.260Z,37.58
2023-05-16T07:59:14.311Z,37.58
2023-05-16T08:00:14.233Z,37.51
2023-05-16T08:01:14.245Z,37.57
2023-05-16T08:02:14.220Z,37.40
2023-05-16T08:03:14.441Z,37.34
2023-05-16T08:04:14.270Z,37.39
2023-05-16T08:05:14.257Z,37.34
2023-05-16T08:06:14.235Z,37.40
2023-05-16T08:07:14.200Z,37.36
2023-05-16T08:08:14.311Z,37.31
2023-05-16T08:09:14.195Z,37.31
2023-05-16T08:10:14.170Z,37.33
2023-05-16T08:11:14.186Z,37.29
2023-05-16T08:12:14.151Z,37.29
2023-05-16T08:13:14.189Z,37.31
2023-05-16T08:14:14.162Z,37.27
2023-05-16T08:15:14.150Z,37.32
2023-05-16T08:16:14.183Z,37.32
2023-05-16T08:17:14.159Z,37.29
2023-05-16T08:18:14.174Z,37.27
2023-05-16T08:19:14.195Z,37.35
2023-05-16T08:20:14.087Z,37.24
2023-05-16T08:21:14.148Z,37.29
2023-05-16T08:22:14.128Z,37.45
2023-05-16T08:23:14.224Z,37.41
2023-05-16T08:24:14.573Z,37.42
2023-05-16T08:25:14.099Z,37.41
2023-05-16T08:26:14.140Z,37.35
2023-05-16T08:27:14.146Z,37.32
2023-05-16T08:28:14.086Z,37.19
2023-05-16T08:29:14.065Z,36.97
2023-05-16T08:30:14.048Z,36.96
2023-05-16T08:31:14.052Z,37.07
2023-05-16T08:32:14.130Z,37.00
2023-05-16T08:33:14.193Z,37.06
2023-05-16T08:34:14.026Z,37.12
2023-05-16T08:35:13.998Z,37.28
2023-05-16T08:36:13.997Z,37.22
2023-05-16T08:37:15.965Z,37.24
2023-05-16T08:38:14.022Z,37.27
2023-05-16T08:39:14.000Z,37.21
2023-05-16T08:40:13.982Z,37.18
2023-05-16T08:41:14.005Z,37.22
2023-05-16T08:42:13.974Z,37.43
2023-05-16T08:43:13.959Z,37.53
2023-05-16T08:44:13.950Z,37.74
2023-05-16T08:45:13.976Z,37.91
2023-05-16T08:46:13.935Z,38.19
2023-05-16T08:47:14.100Z,38.05
2023-05-16T08:48:13.994Z,37.97
2023-05-16T08:49:14.000Z,38.02
2023-05-16T08:50:13.899Z,38.27
2023-05-16T08:51:13.894Z,38.15
2023-05-16T08:52:13.910Z,38.29
2023-05-16T08:53:13.917Z,38.28
2023-05-16T08:54:13.926Z,38.44
2023-05-16T08:55:13.860Z,38.12
2023-05-16T08:56:13.875Z,38.17
2023-05-16T08:57:13.846Z,38.17
2023-05-16T08:58:13.850Z,38.16
2023-05-16T08:59:13.869Z,38.10
2023-05-16T09:00:13.880Z,38.10
2023-05-16T09:01:14.017Z,38.30
2023-05-16T09:02:13.852Z,38.11
2023-05-16T09:03:13.843Z,38.04
2023-05-16T09:04:13.851Z,38.06
2023-05-16T09:05:13.855Z,38.00
2023-05-16T09:06:13.838Z,37.93
2023-05-16T09:07:13.792Z,37.95
2023-05-16T09:08:13.980Z,37.93
2023-05-16T09:09:13.788Z,38.00
2023-05-16T09:10:13.974Z,37.96
2023-05-16T09:11:13.792Z,38.06
2023-05-16T09:12:13.820Z,37.92
2023-05-16T09:13:13.748Z,37.91
2023-05-16T09:14:13.767Z,37.90
2023-05-16T09:15:13.817Z,38.02
2023-05-16T09:16:13.765Z,38.02
2023-05-16T09:17:14.007Z,38.08
2023-05-16T09:18:13.748Z,38.17
2023-05-16T09:19:13.794Z,38.05
2023-05-16T09:20:13.724Z,38.01
2023-05-16T09:21:13.738Z,38.30
2023-05-16T09:22:13.709Z,38.05
2023-05-16T09:23:13.730Z,38.13
2023-05-16T09:24:13.684Z,38.05
2023-05-16T09:25:27.858Z,37.98
2023-05-16T09:26:14.649Z,37.96
2023-05-16T09:27:13.753Z,38.10
2023-05-16T09:28:13.757Z,38.01
2023-05-16T09:29:13.691Z,38.13
2023-05-16T09:30:13.610Z,38.17
2023-05-16T09:31:13.656Z,38.36
2023-05-16T09:32:13.635Z,37.83
2023-05-16T09:33:13.712Z,37.36
2023-05-16T09:34:13.607Z,36.84
2023-05-16T09:35:13.712Z,36.90
2023-05-16T09:36:13.658Z,36.47
2023-05-16T09:37:13.685Z,36.28
2023-05-16T09:38:13.575Z,36.75
2023-05-16T09:39:13.614Z,36.89
2023-05-16T09:40:13.627Z,37.13
2023-05-16T09:41:13.601Z,37.24
2023-05-16T09:42:13.588Z,37.46
2023-05-16T09:43:13.553Z,37.58
2023-05-16T09:44:13.558Z,37.68
2023-05-16T09:45:13.561Z,37.64
2023-05-16T09:46:13.531Z,37.57
2023-05-16T09:47:13.526Z,37.66
2023-05-16T09:48:13.628Z,37.63
2023-05-16T09:49:13.589Z,37.66
2023-05-16T09:50:15.315Z,37.74
2023-05-16T09:51:13.660Z,37.70
2023-05-16T09:52:14.588Z,37.82
2023-05-16T09:53:13.669Z,37.80
2023-05-16T09:54:13.645Z,37.68
2023-05-16T09:55:13.641Z,37.62
2023-05-16T09:56:13.692Z,37.67
2023-05-16T09:57:13.610Z,37.79
2023-05-16T09:58:13.608Z,37.70
2023-05-16T09:59:13.654Z,37.73
2023-05-16T10:00:13.664Z,37.69
2023-05-16T10:01:13.667Z,37.70
2023-05-16T10:02:13.645Z,37.70
2023-05-16T10:03:13.619Z,37.72
2023-05-16T10:04:13.650Z,37.66
2023-05-16T10:05:13.601Z,37.72
2023-05-16T10:06:13.551Z,37.70
2023-05-16T10:07:13.558Z,37.64
2023-05-16T10:08:13.494Z,37.66
2023-05-16T10:09:13.521Z,37.60
2023-05-16T10:10:13.516Z,37.59
2023-05-16T10:11:13.538Z,37.67
2023-05-16T10:12:13.460Z,37.61
2023-05-16T10:13:13.470Z,37.59
2023-05-16T10:14:13.520Z,37.55
2023-05-16T10:15:13.721Z,37.60
2023-05-16T10:16:13.517Z,37.54
2023-05-16T10:17:13.507Z,37.40
2023-05-16T10:18:13.644Z,37.41
2023-05-16T10:19:13.478Z,37.63
2023-05-16T10:20:13.443Z,37.66
2023-05-16T10:21:13.464Z,37.60
2023-05-16T10:22:13.430Z,37.44
2023-05-16T10:23:13.417Z,37.61
2023-05-16T10:24:13.421Z,37.69
2023-05-16T10:25:13.421Z,37.58
2023-05-16T10:26:13.423Z,37.52
2023-05-16T10:27:13.427Z,37.48
2023-05-16T10:28:13.393Z,37.51
2023-05-16T10:29:14.412Z,37.59
2023-05-16T10:30:13.378Z,37.53
2023-05-16T10:31:13.356Z,37.08
2023-05-16T10:32:13.840Z,37.06
2023-05-16T10:33:13.500Z,37.25
2023-05-16T10:34:13.434Z,37.04
2023-05-16T10:35:13.494Z,37.08
2023-05-16T10:36:13.523Z,37.17
2023-05-16T10:37:13.581Z,37.07
2023-05-16T10:38:13.593Z,37.18
2023-05-16T10:39:13.642Z,37.10
2023-05-16T10:40:13.687Z,37.12
2023-05-16T10:41:13.750Z,36.86
2023-05-16T10:42:13.826Z,36.74
2023-05-16T10:43:13.865Z,36.76
2023-05-16T10:44:13.921Z,37.08
2023-05-16T10:45:13.990Z,37.31
2023-05-16T10:46:14.094Z,37.20
2023-05-16T10:47:14.064Z,37.23
2023-05-16T10:48:14.221Z,37.29
2023-05-16T10:49:14.206Z,37.30
2023-05-16T10:50:14.286Z,37.46
2023-05-16T10:51:14.312Z,37.46
2023-05-16T10:52:14.715Z,37.41
2023-05-16T10:53:14.446Z,37.60
2023-05-16T10:54:14.518Z,37.56
2023-05-16T10:55:14.575Z,37.51
2023-05-16T10:56:14.586Z,37.46
2023-05-16T10:57:14.640Z,37.54
2023-05-16T10:58:14.710Z,37.50
2023-05-16T10:59:14.771Z,37.61
2023-05-16T11:00:14.823Z,37.43
2023-05-16T11:01:14.926Z,37.46
2023-05-16T11:02:14.918Z,37.56
2023-05-16T11:03:15.062Z,37.54
2023-05-16T11:04:14.980Z,37.59
2023-05-16T11:05:15.052Z,37.63
2023-05-16T11:06:15.044Z,37.77
2023-05-16T11:07:15.095Z,37.80
2023-05-16T11:08:15.143Z,37.79
2023-05-16T11:09:15.189Z,37.82
2023-05-16T11:10:15.240Z,37.86
2023-05-16T11:11:15.302Z,37.79
2023-05-16T11:12:15.262Z,37.74
2023-05-16T11:13:15.277Z,37.77
2023-05-16T11:14:15.281Z,37.72
2023-05-16T11:15:15.308Z,37.65
2023-05-16T11:16:15.387Z,37.77
2023-05-16T11:17:15.506Z,37.69
2023-05-16T11:18:15.353Z,37.67
2023-05-16T11:19:15.386Z,37.60
2023-05-16T11:20:15.518Z,37.49
2023-05-16T11:21:16.247Z,37.53
2023-05-16T11:22:15.461Z,36.96
2023-05-16T11:23:16.250Z,36.41
2023-05-16T11:24:15.453Z,36.38
2023-05-16T11:25:15.496Z,36.26
2023-05-16T11:26:15.524Z,36.12
2023-05-16T11:27:15.554Z,36.07
2023-05-16T11:28:15.589Z,35.94
2023-05-16T11:29:15.618Z,35.97
2023-05-16T11:30:15.681Z,36.08
2023-05-16T11:31:15.782Z,36.03
2023-05-16T11:32:15.783Z,35.84
2023-05-16T11:33:15.844Z,35.85
2023-05-16T11:34:15.847Z,35.90
2023-05-16T11:35:15.968Z,35.89
2023-05-16T11:36:16.708Z,35.85
2023-05-16T11:37:16.049Z,35.83
2023-05-16T11:38:16.121Z,35.80
2023-05-16T11:39:16.143Z,35.81
2023-05-16T11:40:16.189Z,35.80
2023-05-16T11:41:16.255Z,35.76
2023-05-16T11:42:16.293Z,35.71
2023-05-16T11:43:16.361Z,35.70
2023-05-16T11:44:16.402Z,35.70
2023-05-16T11:45:16.494Z,35.66
2023-05-16T11:46:16.622Z,35.66
2023-05-16T11:47:16.578Z,35.69
2023-05-16T11:48:28.553Z,35.67
2023-05-16T11:49:17.600Z,35.60
2023-05-16T11:50:16.566Z,35.60
2023-05-16T11:51:16.613Z,35.55
2023-05-16T11:52:16.680Z,35.55
2023-05-16T11:53:16.563Z,35.58
2023-05-16T11:54:16.576Z,35.52
2023-05-16T11:55:28.343Z,35.53
2023-05-16T11:56:17.593Z,35.57
2023-05-16T11:57:16.559Z,35.51
2023-05-16T11:58:16.573Z,35.50
2023-05-16T11:59:16.527Z,35.45
2023-05-16T12:00:16.513Z,35.41
2023-05-16T12:01:16.534Z,35.46
2023-05-16T12:02:16.509Z,35.45
2023-05-16T12:03:16.620Z,35.36
2023-05-16T12:04:16.798Z,35.37
2023-05-16T12:05:16.525Z,35.37
2023-05-16T12:06:16.549Z,35.40
2023-05-16T12:07:16.569Z,35.38
2023-05-16T12:08:16.733Z,35.38
2023-05-16T12:09:18.508Z,35.35
2023-05-16T12:10:16.916Z,35.38
2023-05-16T12:11:16.806Z,35.44
2023-05-16T12:12:16.897Z,35.50
2023-05-16T12:13:18.246Z,35.54
2023-05-16T12:14:16.941Z,35.55
2023-05-16T12:15:16.956Z,35.58
2023-05-16T12:16:17.004Z,35.54
2023-05-16T12:17:16.929Z,35.54
2023-05-16T12:18:17.032Z,35.60
2023-05-16T12:19:17.000Z,35.61
2023-05-16T12:20:16.911Z,35.58
2023-05-16T12:21:16.931Z,35.54
2023-05-16T12:22:16.890Z,35.61
2023-05-16T12:23:16.913Z,35.60
2023-05-16T12:24:16.928Z,35.69
2023-05-16T12:25:16.913Z,35.66
2023-05-16T12:26:16.884Z,35.64
2023-05-16T12:27:16.939Z,35.66
2023-05-16T12:28:16.897Z,35.68
2023-05-16T12:29:16.899Z,35.68
2023-05-16T12:30:16.952Z,35.68
2023-05-16T12:31:30.361Z,35.67
2023-05-16T12:32:17.916Z,35.66
2023-05-16T12:33:16.925Z,35.64
2023-05-16T12:34:16.797Z,35.65
2023-05-16T12:35:16.805Z,35.66
2023-05-16T12:36:16.801Z,35.65
2023-05-16T12:37:16.880Z,35.66
2023-05-16T12:38:16.820Z,35.64
2023-05-16T12:39:16.775Z,35.65
2023-05-16T12:40:16.823Z,35.63
2023-05-16T12:41:16.786Z,35.58
2023-05-16T12:42:16.756Z,35.58
2023-05-16T12:43:16.796Z,35.57
2023-05-16T12:44:16.806Z,35.59
2023-05-16T12:45:16.888Z,35.61
2023-05-16T12:46:16.958Z,35.60
2023-05-16T12:47:17.013Z,35.65
2023-05-16T12:48:17.113Z,35.60
2023-05-16T12:49:17.072Z,35.56
2023-05-16T12:50:17.114Z,35.60
2023-05-16T12:51:17.159Z,35.61
2023-05-16T12:52:17.228Z,35.62
2023-05-16T12:53:17.289Z,35.62